createdAt,value
2023-05-01T00:04:06.266Z,9.56
2023-05-01T00:09:09.491Z,9.55
2023-05-01T00:14:12.540Z,9.57
2023-05-01T00:19:18.997Z,9.49
2023-05-01T00:24:21.786Z,9.48
2023-05-01T00:29:24.553Z,9.39
2023-05-01T00:34:28.940Z,9.39
2023-05-01T00:39:31.804Z,9.42
2023-05-01T00:44:34.642Z,9.18
2023-05-01T00:49:38.952Z,9.13
2023-05-01T00:54:42.018Z,9.17
2023-05-01T00:59:44.684Z,9.09
2023-05-01T01:04:49.257Z,9.11
2023-05-01T01:10:02.445Z,9.17
2023-05-01T01:15:12.810Z,8.98
2023-05-01T01:20:25.485Z,9.08
2023-05-01T01:25:47.014Z,9.00
2023-05-01T01:31:18.767Z,8.85
2023-05-01T01:36:29.174Z,8.91
2023-05-01T01:41:33.122Z,8.75
2023-05-01T01:46:39.300Z,8.79
2023-05-01T01:51:43.367Z,8.72
2023-05-01T01:56:47.580Z,8.66
2023-05-01T02:01:51.278Z,8.60
2023-05-01T02:06:57.070Z,8.61
2023-05-01T02:12:01.685Z,8.69
2023-05-01T02:17:05.504Z,8.28
2023-05-01T02:22:10.416Z,8.41
2023-05-01T02:27:16.984Z,8.52
2023-05-01T02:32:19.933Z,8.14
2023-05-01T02:37:24.193Z,8.27
2023-05-01T02:42:28.112Z,8.25
2023-05-01T02:47:34.238Z,8.18
2023-05-01T02:52:38.635Z,8.21
2023-05-01T02:58:01.803Z,8.10
2023-05-01T03:03:05.172Z,8.14
2023-05-01T03:08:09.984Z,8.08
2023-05-01T03:13:13.028Z,8.02
2023-05-01T03:18:15.979Z,8.05
2023-05-01T03:23:20.066Z,7.92
2023-05-01T03:28:23.530Z,7.84
2023-05-01T03:33:28.088Z,7.85
2023-05-01T03:38:32.810Z,7.97
2023-05-01T03:43:44.562Z,7.91
2023-05-01T03:49:04.756Z,7.99
2023-05-01T03:54:13.406Z,7.87
2023-05-01T03:59:35.356Z,7.87
2023-05-01T04:04:38.271Z,7.89
2023-05-01T04:09:43.699Z,7.78
2023-05-01T04:14:46.908Z,7.82
2023-05-01T04:19:50.235Z,7.88
2023-05-01T04:24:54.628Z,7.79
2023-05-01T04:29:58.060Z,7.89
2023-05-01T04:35:01.317Z,7.96
2023-05-01T04:40:09.694Z,7.87
2023-05-01T04:45:14.438Z,8.12
2023-05-01T04:50:17.099Z,8.02
2023-05-01T04:55:21.224Z,8.15
2023-05-01T05:00:40.662Z,8.25
2023-05-01T05:05:46.769Z,8.22
2023-05-01T05:10:51.169Z,8.33
2023-05-01T05:16:00.992Z,8.45
2023-05-01T05:21:05.576Z,8.49
2023-05-01T05:26:09.802Z,8.55
2023-05-01T05:31:13.080Z,8.68
2023-05-01T05:36:16.203Z,8.75
2023-05-01T05:41:21.560Z,8.78
2023-05-01T05:46:26.520Z,8.94
2023-05-01T05:51:29.268Z,9.06
2023-05-01T05:56:33.878Z,9.05
2023-05-01T06:01:37.247Z,9.14
2023-05-01T06:06:40.180Z,9.28
2023-05-01T06:11:44.251Z,9.41
2023-05-01T06:16:47.490Z,9.55
2023-05-01T06:21:50.203Z,9.79
2023-05-01T06:26:54.810Z,9.90
2023-05-01T06:31:57.788Z,10.20
2023-05-01T06:37:00.876Z,10.42
2023-05-01T06:42:05.136Z,10.64
2023-05-01T06:47:14.771Z,10.83
2023-05-01T06:52:17.548Z,10.81
2023-05-01T06:57:21.597Z,10.95
2023-05-01T07:02:24.364Z,11.14
2023-05-01T07:07:27.118Z,11.11
2023-05-01T07:12:31.534Z,11.36
2023-05-01T07:17:34.270Z,11.65
2023-05-01T07:22:37.116Z,11.79
2023-05-01T07:27:41.587Z,11.92
2023-05-01T07:32:44.266Z,11.97
2023-05-01T07:37:46.934Z,12.15
2023-05-01T07:42:52.355Z,12.51
2023-05-01T07:47:57.075Z,12.85
2023-05-01T07:52:59.996Z,13.58
2023-05-01T07:58:04.113Z,13.65
2023-05-01T08:03:07.189Z,13.42
2023-05-01T08:08:10.103Z,13.60
2023-05-01T08:13:14.152Z,13.70
2023-05-01T08:18:20.961Z,13.57
2023-05-01T08:23:25.206Z,13.64
2023-05-01T08:28:29.272Z,13.96
2023-05-01T08:33:31.996Z,14.20
2023-05-01T08:38:34.651Z,14.37
2023-05-01T08:43:40.810Z,14.58
2023-05-01T08:48:44.118Z,14.61
2023-05-01T08:53:50.355Z,14.84
2023-05-01T08:58:54.910Z,15.25
2023-05-01T09:03:58.508Z,15.49
2023-05-01T09:09:01.351Z,15.40
2023-05-01T09:14:08.312Z,15.36
2023-05-01T09:19:10.991Z,15.68
2023-05-01T09:24:13.686Z,16.13
2023-05-01T09:29:38.473Z,15.95
2023-05-01T09:34:41.193Z,15.88
2023-05-01T09:39:43.855Z,16.38
2023-05-01T09:44:48.730Z,16.71
2023-05-01T09:49:51.408Z,16.59
2023-05-01T09:55:13.638Z,16.51
2023-05-01T10:00:20.732Z,16.80
2023-05-01T10:05:24.641Z,17.24
2023-05-01T10:10:27.679Z,17.38
2023-05-01T10:15:38.585Z,16.98
2023-05-01T10:20:41.286Z,17.22
2023-05-01T10:25:45.371Z,17.45
2023-05-01T10:30:49.986Z,17.43
2023-05-01T10:35:57.205Z,17.56
2023-05-01T10:40:59.856Z,17.82
2023-05-01T10:46:33.431Z,18.07
2023-05-01T10:51:36.156Z,17.78
2023-05-01T10:56:45.220Z,18.26
2023-05-01T11:01:51.859Z,18.57
2023-05-01T11:07:17.831Z,19.52
2023-05-01T11:12:52.134Z,18.73
2023-05-01T11:17:56.380Z,19.45
2023-05-01T11:22:59.580Z,19.84
2023-05-01T11:28:03.130Z,19.33
2023-05-01T11:33:10.106Z,18.71
2023-05-01T11:38:18.585Z,18.96
2023-05-01T11:43:21.544Z,18.85
2023-05-01T11:48:25.601Z,18.35
2023-05-01T11:53:28.716Z,19.58
2023-05-01T11:58:33.509Z,19.65
2023-05-01T12:03:43.540Z,18.76
2023-05-01T12:08:51.061Z,18.67
2023-05-01T12:13:54.130Z,18.31
2023-05-01T12:18:58.280Z,19.47
2023-05-01T12:24:09.305Z,19.65
2023-05-01T12:29:12.299Z,20.75
2023-05-01T12:34:16.389Z,19.04
2023-05-01T12:39:19.144Z,19.50
2023-05-01T12:44:23.560Z,19.43
2023-05-01T12:49:28.306Z,19.75
2023-05-01T12:54:31.978Z,19.47
2023-05-01T12:59:35.527Z,19.80
2023-05-01T13:04:40.995Z,19.09
2023-05-01T13:09:53.047Z,20.08
2023-05-01T13:14:56.309Z,20.36
2023-05-01T13:20:05.647Z,20.35
2023-05-01T13:25:20.476Z,19.79
2023-05-01T13:30:32.927Z,19.85
2023-05-01T13:35:39.118Z,20.72
2023-05-01T13:40:41.871Z,21.03
2023-05-01T13:45:44.772Z,20.76
2023-05-01T13:50:48.866Z,20.50
2023-05-01T13:55:51.857Z,20.38
2023-05-01T14:00:54.661Z,20.24
2023-05-01T14:05:58.799Z,19.86
2023-05-01T14:11:01.474Z,19.98
2023-05-01T14:16:09.507Z,19.41
2023-05-01T14:21:14.336Z,19.81
2023-05-01T14:26:19.428Z,19.63
2023-05-01T14:31:27.048Z,20.22
2023-05-01T14:36:32.771Z,19.32
2023-05-01T14:41:38.169Z,19.61
2023-05-01T14:46:46.634Z,19.50
2023-05-01T14:51:50.937Z,19.84
2023-05-01T14:56:53.770Z,19.73
2023-05-01T15:01:56.566Z,19.47
2023-05-01T15:07:00.754Z,20.12
2023-05-01T15:12:06.744Z,20.08
2023-05-01T15:17:10.519Z,19.90
2023-05-01T15:22:14.552Z,19.57
2023-05-01T15:27:17.715Z,19.65
2023-05-01T15:32:20.654Z,19.65
2023-05-01T15:37:24.779Z,19.71
2023-05-01T15:42:27.641Z,19.94
2023-05-01T15:47:30.544Z,19.38
2023-05-01T15:52:35.940Z,19.28
2023-05-01T15:57:38.637Z,19.16
2023-05-01T16:02:41.425Z,18.92
2023-05-01T16:07:46.051Z,19.13
2023-05-01T16:12:50.467Z,18.91
2023-05-01T16:17:54.937Z,18.23
2023-05-01T16:22:59.925Z,17.92
2023-05-01T16:28:06.180Z,18.06
2023-05-01T16:33:12.249Z,17.89
2023-05-01T16:38:16.494Z,17.72
2023-05-01T16:43:19.220Z,17.72
2023-05-01T16:48:24.731Z,18.26
2023-05-01T16:53:28.817Z,17.96
2023-05-01T16:58:31.790Z,18.09
2023-05-01T17:03:34.958Z,18.37
2023-05-01T17:08:39.003Z,18.39
2023-05-01T17:13:41.729Z,18.11
2023-05-01T17:18:44.456Z,18.01
2023-05-01T17:23:48.466Z,18.03
2023-05-01T17:28:51.210Z,17.91
2023-05-01T17:33:53.843Z,17.68
2023-05-01T17:38:59.966Z,16.27
2023-05-01T17:44:02.643Z,15.35
2023-05-01T17:49:06.012Z,14.96
2023-05-01T17:54:10.579Z,14.96
2023-05-01T17:59:13.564Z,14.79
2023-05-01T18:04:16.317Z,14.58
2023-05-01T18:09:20.481Z,14.20
2023-05-01T18:14:23.141Z,14.13
2023-05-01T18:19:26.034Z,13.86
2023-05-01T18:24:30.051Z,13.76
2023-05-01T18:29:32.779Z,13.63
2023-05-01T18:34:35.475Z,13.64
2023-05-01T18:39:39.748Z,13.48
2023-05-01T18:44:42.558Z,13.55
2023-05-01T18:49:45.282Z,13.37
2023-05-01T18:54:49.292Z,13.32
2023-05-01T18:59:51.936Z,13.30
2023-05-01T19:04:58.016Z,13.09
2023-05-01T19:10:02.558Z,13.23
2023-05-01T19:15:05.626Z,13.21
2023-05-01T19:20:09.701Z,13.11
2023-05-01T19:25:13.721Z,13.01
2023-05-01T19:30:16.405Z,13.18
2023-05-01T19:35:19.128Z,13.31
2023-05-01T19:40:23.358Z,13.49
2023-05-01T19:45:26.276Z,13.38
2023-05-01T19:50:28.972Z,13.21
2023-05-01T19:55:33.485Z,12.99
2023-05-01T20:00:36.457Z,13.39
2023-05-01T20:05:39.293Z,13.19
2023-05-01T20:10:43.346Z,13.47
2023-05-01T20:15:46.064Z,13.70
2023-05-01T20:20:48.866Z,13.51
2023-05-01T20:25:53.583Z,13.44
2023-05-01T20:30:56.850Z,13.60
2023-05-01T20:36:00.235Z,13.44
2023-05-01T20:41:04.276Z,13.38
2023-05-01T20:46:07.242Z,13.36
2023-05-01T20:51:10.277Z,13.39
2023-05-01T20:56:14.620Z,13.35
2023-05-01T21:01:17.331Z,13.08
2023-05-01T21:06:20.264Z,13.09
2023-05-01T21:11:24.326Z,13.10
2023-05-01T21:16:28.909Z,13.03
2023-05-01T21:21:31.614Z,12.92
2023-05-01T21:26:35.909Z,12.82
2023-05-01T21:31:39.661Z,12.84
2023-05-01T21:36:44.911Z,12.88
2023-05-01T21:41:49.853Z,12.62
2023-05-01T21:46:54.744Z,12.57
2023-05-01T21:52:00.138Z,12.61
2023-05-01T21:57:07.519Z,12.62
2023-05-01T22:02:11.448Z,12.61
2023-05-01T22:07:14.161Z,12.68
2023-05-01T22:12:18.210Z,12.63
2023-05-01T22:17:24.116Z,12.61
2023-05-01T22:22:27.021Z,12.53
2023-05-01T22:27:31.244Z,12.53
2023-05-01T22:32:34.035Z,12.35
2023-05-01T22:37:36.926Z,12.41
2023-05-01T22:42:41.090Z,12.53
2023-05-01T22:47:43.879Z,12.42
2023-05-01T22:52:46.692Z,12.24
2023-05-01T22:57:50.947Z,12.16
2023-05-01T23:02:53.717Z,12.01
2023-05-01T23:07:56.475Z,12.05
2023-05-01T23:13:00.567Z,12.18
2023-05-01T23:18:03.323Z,12.23
2023-05-01T23:23:07.035Z,12.35
2023-05-01T23:28:11.113Z,12.23
2023-05-01T23:33:14.660Z,12.17
2023-05-01T23:38:17.586Z,12.17
2023-05-01T23:43:21.790Z,12.20
2023-05-01T23:48:24.636Z,12.25
2023-05-01T23:53:27.442Z,12.29
2023-05-01T23:58:31.560Z,12.15
